• Join FlightAware (Why Join?)
  • Login
  • US Flag 
05:41AM EDT


 

Airport Tracker/Info


-or-


 

Live Flight TrackerFlight Track Log ✈ SWA471 ✈ 26-Apr-2013 ✈ KBWI - KMCI

Flight Track Log - Related Links

Times and Time Zones

All times are in EDT time to prevent confusion due to time zone crossing. See the SWA471 flight status page for this flight to view local times or setup timezone preferences in your user account.

Time Position Orientation Groundspeed Altitude Reporting Facility
EDT Latitude Longitude Course Direction KTS MPH feet Rate Location/Type
06:16PM 39.1833 -76.8000 275° West 223 257 4,200  Level Potomac TRACON
06:17PM 39.2000 -76.9000 282° West 269 310 7,200 3,180 Climbing Potomac TRACON
06:18PM 39.2167 -76.9667 288° West 259 298 10,300 2,100 Climbing Potomac TRACON
06:19PM 39.2167 -77.0667 270° West 314 361 11,300 1,800 Climbing Potomac TRACON
06:20PM 39.1833 -77.1833 250° West 352 405 14,000 2,280 Climbing Potomac TRACON
06:22PM 39.0494 -77.2942 213° Southwest 374 430 17,600 1,860 Climbing Washington Center
06:23PM 39.0014 -77.4372 247° West 356 410 19,100 1,620 Climbing Washington Center
06:24PM 38.9764 -77.5728 257° West 367 422 20,900 1,680 Climbing Washington Center
06:25PM 38.9556 -77.6950 258° West 392 451 22,600 1,560 Climbing Washington Center
06:26PM 38.9256 -77.8464 256° West 398 458 24,100 1,680 Climbing Washington Center
06:27PM 38.9003 -77.9736 256° West 403 464 26,000 1,980 Climbing Washington Center
06:28PM 38.8747 -78.1061 256° West 397 457 28,100 1,800 Climbing Washington Center
06:29PM 38.8531 -78.2333 258° West 384 442 29,600 1,260 Climbing Washington Center
06:30PM 38.8522 -78.3639 270° West 373 429 30,600 1,140 Climbing Washington Center
06:31PM 38.8514 -78.4864 270° West 360 414 32,000 1,380 Climbing Washington Center
06:32PM 38.8506 -78.6092 270° West 355 409 33,400 960 Climbing Washington Center
06:33PM 38.8497 -78.7264 270° West 344 396 34,000 300 Climbing Washington Center
06:34PM 38.8467 -78.8436 268° West 339 390 34,000  Level Washington Center
06:35PM 38.8453 -78.9633 269° West 339 390 34,000  Level Washington Center
06:36PM 38.8442 -79.0806 269° West 339 390 34,000  Level Washington Center
06:37PM 38.8425 -79.2058 269° West 334 384 34,000  Level Washington Center
06:38PM 38.8389 -79.3231 268° West 328 377 34,000  Level Washington Center
06:39PM 38.8372 -79.4375 269° West 328 377 34,000  Level Washington Center
06:40PM 38.8378 -79.5547 270° West 328 377 34,000  Level Washington Center
06:41PM 38.8342 -79.6639 268° West 339 390 34,000  Level Washington Center
06:42PM 38.8317 -79.7917 269° West 339 390 34,000  Level Washington Center
06:43PM 38.8278 -79.9061 268° West 332 382 34,000  Level Washington Center
06:44PM 38.8256 -80.0206 269° West 326 375 34,000  Level Washington Center
06:45PM 38.8194 -80.1267 266° West 326 375 34,000  Level Washington Center
06:45PM 38.8178 -80.1811 268° West 325 374 34,000  Level Indianapolis Center
06:46PM 38.8142 -80.2969 268° West 326 375 34,000  Level Indianapolis Center
06:47PM 38.8114 -80.4147 268° West 329 379 34,000  Level Indianapolis Center
06:48PM 38.8078 -80.5544 268° West 328 377 34,000  Level Indianapolis Center
06:49PM 38.8042 -80.6731 268° West 332 382 34,000  Level Indianapolis Center
06:51PM 38.8169 -80.7878 278° West 327 376 34,000  Level Indianapolis Center
06:52PM 38.8367 -80.9031 282° West 331 381 34,000  Level Indianapolis Center
06:53PM 38.8567 -81.0161 283° West 328 377 34,000  Level Indianapolis Center
06:54PM 38.8764 -81.1311 282° West 330 380 34,000  Level Indianapolis Center
06:55PM 38.9003 -81.2694 283° West 332 382 34,000  Level Indianapolis Center
06:56PM 38.9206 -81.3836 283° West 332 382 34,000  Level Indianapolis Center
06:57PM 38.9361 -81.4989 280° West 332 382 34,000  Level Indianapolis Center
06:58PM 38.9392 -81.6164 272° West 333 383 34,000  Level Indianapolis Center
06:59PM 38.9428 -81.7336 272° West 332 382 34,000  Level Indianapolis Center
07:00PM 38.9467 -81.8758 272° West 334 384 34,000  Level Indianapolis Center
07:01PM 38.9494 -81.9931 272° West 330 380 34,000  Level Indianapolis Center
07:02PM 38.9522 -82.1119 272° West 335 386 34,000  Level Indianapolis Center
07:03PM 38.9550 -82.2300 272° West 333 383 34,000  Level Indianapolis Center
07:04PM 38.9578 -82.3486 272° West 333 383 34,000  Level Indianapolis Center
07:05PM 38.9608 -82.4678 272° West 333 383 34,000  Level Indianapolis Center
07:06PM 38.9636 -82.6086 271° West 331 381 34,000  Level Indianapolis Center
07:07PM 38.9658 -82.7283 271° West 334 384 34,000  Level Indianapolis Center
07:08PM 38.9678 -82.8483 271° West 335 386 34,000  Level Indianapolis Center
07:09PM 38.9706 -82.9664 272° West 333 383 34,000  Level Indianapolis Center
07:10PM 38.9728 -83.0861 271° West 334 384 34,000  Level Indianapolis Center
07:11PM 38.9742 -83.2058 271° West 336 387 34,000  Level Indianapolis Center
07:12PM 38.9758 -83.3272 271° West 337 388 34,000  Level Indianapolis Center
07:13PM 38.9778 -83.4683 271° West 336 387 34,000  Level Indianapolis Center
07:14PM 38.9794 -83.5900 271° West 336 387 34,000  Level Indianapolis Center
07:15PM 38.9806 -83.7111 271° West 336 387 34,000  Level Indianapolis Center
07:16PM 38.9817 -83.8342 271° West 339 390 34,000  Level Indianapolis Center
07:17PM 38.9831 -83.9550 271° West 337 388 34,000  Level Indianapolis Center
07:18PM 38.9839 -84.0792 271° West 340 391 34,000  Level Indianapolis Center
07:19PM 38.9856 -84.2017 271° West 340 391 34,000  Level Indianapolis Center
07:20PM 38.9861 -84.3250 270° West 341 392 34,000  Level Indianapolis Center
07:21PM 38.9867 -84.4483 270° West 340 391 34,000  Level Indianapolis Center
07:22PM 38.9872 -84.5725 270° West 344 396 34,000  Level Indianapolis Center
07:23PM 38.9878 -84.6961 270° West 342 394 34,000  Level Indianapolis Center
07:25PM 38.9878 -84.8411 270° West 344 396 34,000  Level Indianapolis Center
07:26PM 38.9881 -84.9569 270° West 347 399 34,000  Level Indianapolis Center
07:27PM 38.9886 -85.0817 270° West 348 400 34,000  Level Indianapolis Center
07:28PM 38.9883 -85.2053 270° West 344 396 34,000  Level Indianapolis Center
07:29PM 38.9872 -85.3511 269° West 347 399 34,000  Level Indianapolis Center
07:30PM 38.9881 -85.4744 271° West 344 396 34,000  Level Indianapolis Center
07:31PM 38.9864 -85.5975 269° West 343 395 34,000  Level Indianapolis Center
07:32PM 38.9864 -85.7219 270° West 345 397 34,000  Level Indianapolis Center
07:33PM 38.9847 -85.8461 269° West 346 398 34,000  Level Indianapolis Center
07:34PM 38.9836 -85.9706 269° West 346 398 34,000  Level Indianapolis Center
07:35PM 38.9828 -86.0961 270° West 348 400 34,000  Level Indianapolis Center
07:36PM 38.9822 -86.2228 270° West 350 403 34,000  Level Indianapolis Center
07:37PM 38.9803 -86.3500 269° West 352 405 34,000  Level Indianapolis Center
07:38PM 38.9789 -86.4769 269° West 353 406 34,000  Level Indianapolis Center
07:39PM 38.9781 -86.6092 270° West 352 405 34,000  Level Indianapolis Center
07:40PM 38.9756 -86.7356 269° West 354 407 34,000  Level Indianapolis Center
07:41PM 38.9731 -86.8619 269° West 355 409 34,000  Level Indianapolis Center
07:42PM 38.9717 -86.9897 269° West 358 412 34,000  Level Indianapolis Center
07:43PM 38.9689 -87.1439 269° West 361 415 34,000  Level Indianapolis Center
07:44PM 38.9675 -87.2733 269° West 363 418 34,000  Level Indianapolis Center
07:45PM 38.9639 -87.4028 268° West 363 418 34,000  Level Indianapolis Center
07:46PM 38.9611 -87.5311 268° West 361 415 34,000  Level Indianapolis Center
07:47PM 38.9586 -87.6614 269° West 364 419 34,000  Level Indianapolis Center
07:48PM 38.9556 -87.7919 268° West 366 421 34,000  Level Indianapolis Center
07:49PM 38.9522 -87.9197 268° West 360 414 34,000  Level Indianapolis Center
07:50PM 38.9483 -88.0492 268° West 362 417 34,000  Level Indianapolis Center
07:51PM 38.9453 -88.2044 269° West 363 418 34,000  Level Indianapolis Center
07:52PM 38.9403 -88.3317 267° West 358 412 34,000  Level Indianapolis Center
07:53PM 38.9378 -88.4614 269° West 361 415 34,000  Level Indianapolis Center
07:54PM 38.9333 -88.5894 267° West 360 414 34,000  Level Indianapolis Center
07:55PM 38.9292 -88.7186 268° West 360 414 34,000  Level Indianapolis Center
07:56PM 38.9256 -88.8481 268° West 363 418 34,000  Level Indianapolis Center
07:57PM 38.9203 -88.9772 267° West 362 417 34,000  Level Indianapolis Center
07:58PM 38.9153 -89.1281 268° West 366 421 34,000  Level Kansas City Center
07:59PM 38.9108 -89.2583 268° West 366 421 34,000  Level Kansas City Center
08:00PM 38.9061 -89.3978 268° West 365 420 34,000  Level Kansas City Center
08:02PM 38.9011 -89.5289 267° West 369 425 34,000  Level Kansas City Center
08:03PM 38.8964 -89.6517 267° West 370 426 34,000  Level Kansas City Center
08:04PM 38.8914 -89.7825 267° West 370 426 34,000  Level Kansas City Center
08:05PM 38.8856 -89.9156 267° West 373 429 34,000  Level Kansas City Center
08:06PM 38.8806 -90.0667 268° West 369 425 34,000 -540 Level Kansas City Center
08:07PM 38.8756 -90.1964 267° West 366 421 32,900 -1,020 Descending Kansas City Center
08:08PM 38.8711 -90.3206 267° West 352 405 32,000 -480 Descending Kansas City Center
08:09PM 38.8631 -90.4417 265° West 344 396 32,000  Level Kansas City Center
08:10PM 38.8942 -90.5664 288° West 361 415 32,000  Level Kansas City Center
08:11PM 38.9458 -90.6897 298° West 390 449 32,000  Level Kansas City Center
08:12PM 39.0069 -90.8383 298° West 393 452 32,000  Level Kansas City Center
08:13PM 39.0569 -90.9631 297° West 394 453 32,000  Level Kansas City Center
08:14PM 39.1081 -91.0886 298° West 397 457 32,000  Level Kansas City Center
08:15PM 39.1578 -91.2144 297° West 396 456 32,000  Level Kansas City Center
08:16PM 39.2072 -91.3378 297° West 392 451 32,000  Level Kansas City Center
08:17PM 39.2547 -91.4619 296° West 389 448 32,000  Level Kansas City Center
08:18PM 39.3028 -91.5822 297° West 381 438 32,000  Level Kansas City Center
08:19PM 39.3558 -91.7150 297° West 377 434 32,000 -420 Level Kansas City Center
08:20PM 39.4033 -91.8322 298° West 372 428 31,200 -660 Descending Kansas City Center
08:21PM 39.4508 -91.9564 296° West 381 438 30,700 -600 Descending Kansas City Center
08:22PM 39.4978 -92.0756 297° West 377 434 30,000 -900 Descending Kansas City Center
08:23PM 39.5539 -92.2217 297° West 378 435 28,900 -1,020 Descending Kansas City Center
08:24PM 39.6017 -92.3461 297° West 382 440 27,900 -1,020 Descending Kansas City Center
08:25PM 39.6486 -92.4714 296° West 385 443 26,800 -1,140 Descending Kansas City Center
08:26PM 39.6533 -92.6100 273° West 392 451 25,600 -960 Descending Kansas City Center
08:27PM 39.6517 -92.7503 269° West 391 450 24,900 -660 Descending Kansas City Center
08:28PM 39.6492 -92.8847 269° West 385 443 24,300 -900 Descending Kansas City Center
08:29PM 39.6478 -93.0136 269° West 374 430 23,100 -1,260 Descending Kansas City Center
08:30PM 39.6453 -93.1650 269° West 357 411 21,700 -1,320 Descending Kansas City Center
08:31PM 39.6425 -93.2861 268° West 344 396 20,400 -1,380 Descending Kansas City Center
08:32PM 39.6400 -93.4069 268° West 338 389 18,900 -1,380 Descending Kansas City Center
08:33PM 39.6372 -93.5256 268° West 335 386 17,700 -1,560 Descending Kansas City Center
08:34PM 39.6361 -93.6408 269° West 325 374 15,800 -2,520 Descending Kansas City Center
08:35PM 39.6325 -93.7669 268° West 323 372 12,500 -2,880 Descending Kansas City Center
08:36PM 39.6261 -93.8858 266° West 346 398 9,800 -1,740 Descending Kansas City Center
08:37PM 39.5714 -93.9911 236° Southwest 306 352 9,000 -480 Descending Kansas City Center
08:38PM 39.5319 -94.0731 238° Southwest 280 322 8,900 -480 Descending Kansas City Center
08:39PM 39.5222 -94.1744 263° West 256 295 8,100 -1,020 Descending Kansas City Center
08:40PM 39.5225 -94.2606 270° West 251 289 6,900 -1,080 Descending Kansas City Center
08:42PM 39.5228 -94.3447 270° West 245 282 5,900 -480 Descending Kansas City Center
08:43PM 39.5233 -94.4428 270° West 246 283 6,000 -240 Climbing Kansas City Center
08:44PM 39.5236 -94.5228 270° West 234 269 5,500 -840 Descending Kansas City Center
08:45PM 39.5242 -94.6069 271° West 212 244 4,300 -720 Descending Kansas City Center
08:46PM 39.5092 -94.6664 252° West 197 227 4,000 -360 Descending Kansas City Center
08:47PM 39.4519 -94.6825 192° South 188 216 3,600 -660 Descending Kansas City Center
08:48PM 39.4056 -94.6964 193° South 179 206 2,700 -840 Descending Kansas City Center
08:49PM 39.3672 -94.7075 193° South 151 174 2,000 -840 Descending Kansas City Center
08:50PM 39.3250 -94.7200 193° South 142 163 1,100 -540 Descending Kansas City Center
08:51PM 39.2864 -94.7311 193° South 143 165 1,000 -120 Descending Kansas City Center